sensor_id;sensor_type;location;lat;lon;timestamp;P1;durP1;ratioP1;P2;durP2;ratioP2
26690;SDS011;14307;51.718;8.938;2023-07-29T00:01:22;9.65;;;8.77;;
26690;SDS011;14307;51.718;8.938;2023-07-29T00:03:49;8.88;;;8.07;;
26690;SDS011;14307;51.718;8.938;2023-07-29T00:06:16;10.65;;;8.65;;
26690;SDS011;14307;51.718;8.938;2023-07-29T00:08:42;10.82;;;8.57;;
26690;SDS011;14307;51.718;8.938;2023-07-29T00:11:09;10.73;;;8.50;;
26690;SDS011;14307;51.718;8.938;2023-07-29T00:13:36;12.18;;;8.82;;
26690;SDS011;14307;51.718;8.938;2023-07-29T00:16:03;9.60;;;6.93;;
26690;SDS011;14307;51.718;8.938;2023-07-29T00:18:30;9.30;;;7.93;;
26690;SDS011;14307;51.718;8.938;2023-07-29T00:20:57;8.82;;;7.72;;
26690;SDS011;14307;51.718;8.938;2023-07-29T00:23:24;8.65;;;7.63;;
26690;SDS011;14307;51.718;8.938;2023-07-29T00:25:51;8.60;;;7.90;;
26690;SDS011;14307;51.718;8.938;2023-07-29T00:28:18;7.97;;;7.38;;
26690;SDS011;14307;51.718;8.938;2023-07-29T00:30:48;10.68;;;8.32;;
26690;SDS011;14307;51.718;8.938;2023-07-29T00:33:15;8.70;;;7.90;;
26690;SDS011;14307;51.718;8.938;2023-07-29T00:35:42;8.63;;;7.82;;
26690;SDS011;14307;51.718;8.938;2023-07-29T00:38:09;9.43;;;7.85;;
26690;SDS011;14307;51.718;8.938;2023-07-29T00:40:36;10.90;;;8.63;;
26690;SDS011;14307;51.718;8.938;2023-07-29T00:43:03;9.27;;;7.65;;
26690;SDS011;14307;51.718;8.938;2023-07-29T00:45:30;10.30;;;8.75;;
26690;SDS011;14307;51.718;8.938;2023-07-29T00:47:59;9.38;;;8.52;;
26690;SDS011;14307;51.718;8.938;2023-07-29T00:50:26;11.40;;;8.63;;
26690;SDS011;14307;51.718;8.938;2023-07-29T00:52:54;10.57;;;8.80;;
26690;SDS011;14307;51.718;8.938;2023-07-29T00:55:22;9.45;;;8.63;;
26690;SDS011;14307;51.718;8.938;2023-07-29T00:57:49;9.52;;;8.60;;
26690;SDS011;14307;51.718;8.938;2023-07-29T01:00:19;9.40;;;8.40;;
26690;SDS011;14307;51.718;8.938;2023-07-29T01:02:48;10.13;;;8.77;;
26690;SDS011;14307;51.718;8.938;2023-07-29T01:05:16;10.73;;;8.52;;
26690;SDS011;14307;51.718;8.938;2023-07-29T01:07:49;9.48;;;8.55;;
26690;SDS011;14307;51.718;8.938;2023-07-29T01:10:30;8.48;;;7.88;;
26690;SDS011;14307;51.718;8.938;2023-07-29T01:16:23;8.73;;;8.02;;
26690;SDS011;14307;51.718;8.938;2023-07-29T01:18:36;10.20;;;8.20;;
26690;SDS011;14307;51.718;8.938;2023-07-29T01:21:07;9.73;;;8.00;;
26690;SDS011;14307;51.718;8.938;2023-07-29T01:23:36;8.45;;;7.65;;
26690;SDS011;14307;51.718;8.938;2023-07-29T01:26:04;10.75;;;8.32;;
26690;SDS011;14307;51.718;8.938;2023-07-29T01:28:32;12.73;;;9.93;;
26690;SDS011;14307;51.718;8.938;2023-07-29T01:31:22;11.43;;;9.43;;
26690;SDS011;14307;51.718;8.938;2023-07-29T01:33:53;12.48;;;10.55;;
26690;SDS011;14307;51.718;8.938;2023-07-29T01:36:26;11.40;;;8.73;;
26690;SDS011;14307;51.718;8.938;2023-07-29T01:38:58;13.55;;;9.10;;
26690;SDS011;14307;51.718;8.938;2023-07-29T01:41:27;10.95;;;9.82;;
26690;SDS011;14307;51.718;8.938;2023-07-29T01:43:55;11.32;;;10.23;;
26690;SDS011;14307;51.718;8.938;2023-07-29T01:46:23;11.15;;;9.88;;
26690;SDS011;14307;51.718;8.938;2023-07-29T01:48:50;10.52;;;9.43;;
26690;SDS011;14307;51.718;8.938;2023-07-29T01:51:16;10.30;;;9.13;;
26690;SDS011;14307;51.718;8.938;2023-07-29T01:53:43;11.38;;;8.48;;
26690;SDS011;14307;51.718;8.938;2023-07-29T01:56:10;9.57;;;8.40;;
26690;SDS011;14307;51.718;8.938;2023-07-29T01:58:41;9.80;;;8.60;;
26690;SDS011;14307;51.718;8.938;2023-07-29T02:01:07;12.20;;;9.93;;
26690;SDS011;14307;51.718;8.938;2023-07-29T02:03:34;14.02;;;9.85;;
26690;SDS011;14307;51.718;8.938;2023-07-29T02:06:01;11.45;;;9.57;;
26690;SDS011;14307;51.718;8.938;2023-07-29T02:08:28;12.88;;;9.23;;
26690;SDS011;14307;51.718;8.938;2023-07-29T02:10:54;14.77;;;9.25;;
26690;SDS011;14307;51.718;8.938;2023-07-29T02:13:21;13.10;;;9.43;;
26690;SDS011;14307;51.718;8.938;2023-07-29T02:15:48;11.07;;;9.20;;
26690;SDS011;14307;51.718;8.938;2023-07-29T02:18:15;14.23;;;10.57;;
26690;SDS011;14307;51.718;8.938;2023-07-29T02:20:41;12.80;;;10.48;;
26690;SDS011;14307;51.718;8.938;2023-07-29T02:23:15;15.48;;;10.02;;
26690;SDS011;14307;51.718;8.938;2023-07-29T02:25:43;13.40;;;9.95;;
26690;SDS011;14307;51.718;8.938;2023-07-29T02:28:10;14.43;;;10.35;;
26690;SDS011;14307;51.718;8.938;2023-07-29T02:30:37;15.68;;;10.65;;
26690;SDS011;14307;51.718;8.938;2023-07-29T02:33:07;12.88;;;10.18;;
26690;SDS011;14307;51.718;8.938;2023-07-29T02:35:34;13.23;;;10.18;;
26690;SDS011;14307;51.718;8.938;2023-07-29T02:38:02;13.30;;;11.40;;
26690;SDS011;14307;51.718;8.938;2023-07-29T02:40:28;11.07;;;9.93;;
26690;SDS011;14307;51.718;8.938;2023-07-29T02:42:55;13.75;;;11.85;;
26690;SDS011;14307;51.718;8.938;2023-07-29T02:45:22;12.63;;;11.35;;
26690;SDS011;14307;51.718;8.938;2023-07-29T02:47:49;11.25;;;10.07;;
26690;SDS011;14307;51.718;8.938;2023-07-29T02:50:16;12.38;;;10.93;;
26690;SDS011;14307;51.718;8.938;2023-07-29T02:52:43;12.30;;;10.57;;
26690;SDS011;14307;51.718;8.938;2023-07-29T02:55:09;13.15;;;9.13;;
26690;SDS011;14307;51.718;8.938;2023-07-29T02:57:36;11.32;;;9.98;;
26690;SDS011;14307;51.718;8.938;2023-07-29T03:00:03;12.38;;;10.93;;
26690;SDS011;14307;51.718;8.938;2023-07-29T03:02:34;11.05;;;9.80;;
26690;SDS011;14307;51.718;8.938;2023-07-29T03:05:01;11.63;;;9.75;;
26690;SDS011;14307;51.718;8.938;2023-07-29T03:07:29;13.15;;;9.32;;
26690;SDS011;14307;51.718;8.938;2023-07-29T03:09:55;10.65;;;8.60;;
26690;SDS011;14307;51.718;8.938;2023-07-29T03:12:22;14.65;;;8.82;;
26690;SDS011;14307;51.718;8.938;2023-07-29T03:14:49;9.68;;;8.68;;
26690;SDS011;14307;51.718;8.938;2023-07-29T03:17:16;10.20;;;9.13;;
26690;SDS011;14307;51.718;8.938;2023-07-29T03:19:43;9.23;;;8.25;;
26690;SDS011;14307;51.718;8.938;2023-07-29T03:22:09;9.00;;;8.10;;
26690;SDS011;14307;51.718;8.938;2023-07-29T03:24:36;13.13;;;8.55;;
26690;SDS011;14307;51.718;8.938;2023-07-29T03:27:03;13.77;;;8.75;;
26690;SDS011;14307;51.718;8.938;2023-07-29T03:29:31;12.23;;;8.32;;
26690;SDS011;14307;51.718;8.938;2023-07-29T03:31:58;10.38;;;8.70;;
26690;SDS011;14307;51.718;8.938;2023-07-29T03:34:25;8.82;;;7.97;;
26690;SDS011;14307;51.718;8.938;2023-07-29T03:36:52;11.60;;;8.32;;
26690;SDS011;14307;51.718;8.938;2023-07-29T03:39:18;12.38;;;8.20;;
26690;SDS011;14307;51.718;8.938;2023-07-29T03:41:45;16.20;;;8.02;;
26690;SDS011;14307;51.718;8.938;2023-07-29T03:44:12;8.57;;;7.55;;
26690;SDS011;14307;51.718;8.938;2023-07-29T03:46:39;12.02;;;8.68;;
26690;SDS011;14307;51.718;8.938;2023-07-29T03:49:07;10.68;;;8.35;;
26690;SDS011;14307;51.718;8.938;2023-07-29T03:51:34;12.35;;;9.07;;
26690;SDS011;14307;51.718;8.938;2023-07-29T03:54:01;19.13;;;10.70;;
26690;SDS011;14307;51.718;8.938;2023-07-29T03:56:28;13.23;;;9.50;;
26690;SDS011;14307;51.718;8.938;2023-07-29T03:59:01;20.83;;;11.18;;
26690;SDS011;14307;51.718;8.938;2023-07-29T04:01:32;15.40;;;9.45;;
26690;SDS011;14307;51.718;8.938;2023-07-29T04:03:59;19.65;;;10.50;;
26690;SDS011;14307;51.718;8.938;2023-07-29T04:06:26;14.02;;;10.65;;
26690;SDS011;14307;51.718;8.938;2023-07-29T04:08:53;17.52;;;10.95;;
26690;SDS011;14307;51.718;8.938;2023-07-29T04:11:20;21.70;;;11.43;;
26690;SDS011;14307;51.718;8.938;2023-07-29T04:13:47;14.85;;;10.60;;
26690;SDS011;14307;51.718;8.938;2023-07-29T04:16:14;15.00;;;11.10;;
26690;SDS011;14307;51.718;8.938;2023-07-29T04:18:41;14.52;;;10.60;;
26690;SDS011;14307;51.718;8.938;2023-07-29T04:21:07;16.50;;;10.98;;
26690;SDS011;14307;51.718;8.938;2023-07-29T04:23:34;15.93;;;11.48;;
26690;SDS011;14307;51.718;8.938;2023-07-29T04:26:01;15.25;;;9.75;;
26690;SDS011;14307;51.718;8.938;2023-07-29T04:28:28;12.93;;;10.27;;
26690;SDS011;14307;51.718;8.938;2023-07-29T04:30:54;14.98;;;10.70;;
26690;SDS011;14307;51.718;8.938;2023-07-29T04:33:21;12.98;;;9.45;;
26690;SDS011;14307;51.718;8.938;2023-07-29T04:35:48;14.82;;;10.27;;
26690;SDS011;14307;51.718;8.938;2023-07-29T04:38:15;16.20;;;11.10;;
26690;SDS011;14307;51.718;8.938;2023-07-29T04:40:42;21.23;;;11.52;;
26690;SDS011;14307;51.718;8.938;2023-07-29T04:43:09;17.35;;;10.43;;
26690;SDS011;14307;51.718;8.938;2023-07-29T04:45:35;14.05;;;9.52;;
26690;SDS011;14307;51.718;8.938;2023-07-29T04:48:02;12.57;;;9.45;;
26690;SDS011;14307;51.718;8.938;2023-07-29T04:50:29;18.00;;;10.75;;
26690;SDS011;14307;51.718;8.938;2023-07-29T04:52:56;11.93;;;9.65;;
26690;SDS011;14307;51.718;8.938;2023-07-29T04:55:23;15.18;;;9.68;;
26690;SDS011;14307;51.718;8.938;2023-07-29T04:57:50;15.07;;;10.07;;
26690;SDS011;14307;51.718;8.938;2023-07-29T05:00:17;16.23;;;9.48;;
26690;SDS011;14307;51.718;8.938;2023-07-29T05:02:44;14.25;;;10.45;;
26690;SDS011;14307;51.718;8.938;2023-07-29T05:05:11;15.70;;;9.88;;
26690;SDS011;14307;51.718;8.938;2023-07-29T05:07:38;17.45;;;10.68;;
26690;SDS011;14307;51.718;8.938;2023-07-29T05:10:05;17.35;;;10.00;;
26690;SDS011;14307;51.718;8.938;2023-07-29T05:12:32;13.60;;;10.07;;
26690;SDS011;14307;51.718;8.938;2023-07-29T05:14:59;10.93;;;8.18;;
26690;SDS011;14307;51.718;8.938;2023-07-29T05:17:26;11.10;;;8.10;;
26690;SDS011;14307;51.718;8.938;2023-07-29T05:19:53;10.65;;;8.55;;
26690;SDS011;14307;51.718;8.938;2023-07-29T05:22:20;13.15;;;9.50;;
26690;SDS011;14307;51.718;8.938;2023-07-29T05:24:46;15.07;;;9.40;;
26690;SDS011;14307;51.718;8.938;2023-07-29T05:27:14;11.70;;;8.73;;
26690;SDS011;14307;51.718;8.938;2023-07-29T05:29:41;13.50;;;9.00;;
26690;SDS011;14307;51.718;8.938;2023-07-29T05:32:08;11.43;;;9.55;;
26690;SDS011;14307;51.718;8.938;2023-07-29T05:34:35;12.77;;;9.13;;
26690;SDS011;14307;51.718;8.938;2023-07-29T05:37:02;10.70;;;8.77;;
26690;SDS011;14307;51.718;8.938;2023-07-29T05:39:29;13.10;;;8.88;;
26690;SDS011;14307;51.718;8.938;2023-07-29T05:41:56;10.70;;;8.80;;
26690;SDS011;14307;51.718;8.938;2023-07-29T05:44:23;9.93;;;8.38;;
26690;SDS011;14307;51.718;8.938;2023-07-29T05:46:50;9.10;;;7.68;;
26690;SDS011;14307;51.718;8.938;2023-07-29T05:49:17;11.02;;;7.10;;
26690;SDS011;14307;51.718;8.938;2023-07-29T05:51:44;8.15;;;6.07;;
26690;SDS011;14307;51.718;8.938;2023-07-29T05:54:11;6.53;;;5.82;;
26690;SDS011;14307;51.718;8.938;2023-07-29T05:56:38;6.50;;;5.15;;
26690;SDS011;14307;51.718;8.938;2023-07-29T05:59:08;5.18;;;4.60;;
26690;SDS011;14307;51.718;8.938;2023-07-29T06:01:34;5.10;;;4.55;;
26690;SDS011;14307;51.718;8.938;2023-07-29T06:04:02;4.63;;;4.22;;
26690;SDS011;14307;51.718;8.938;2023-07-29T06:06:28;5.65;;;4.70;;
26690;SDS011;14307;51.718;8.938;2023-07-29T06:08:55;4.93;;;3.85;;
26690;SDS011;14307;51.718;8.938;2023-07-29T06:11:22;5.18;;;4.60;;
26690;SDS011;14307;51.718;8.938;2023-07-29T06:13:49;4.60;;;4.20;;
26690;SDS011;14307;51.718;8.938;2023-07-29T06:16:15;3.97;;;3.63;;
26690;SDS011;14307;51.718;8.938;2023-07-29T06:18:43;4.00;;;3.67;;
26690;SDS011;14307;51.718;8.938;2023-07-29T06:21:10;4.25;;;3.85;;
26690;SDS011;14307;51.718;8.938;2023-07-29T06:23:43;3.97;;;3.60;;
26690;SDS011;14307;51.718;8.938;2023-07-29T06:26:10;4.68;;;4.25;;
26690;SDS011;14307;51.718;8.938;2023-07-29T06:28:37;5.20;;;4.28;;
26690;SDS011;14307;51.718;8.938;2023-07-29T06:31:03;4.75;;;4.35;;
26690;SDS011;14307;51.718;8.938;2023-07-29T06:33:31;4.63;;;4.22;;
26690;SDS011;14307;51.718;8.938;2023-07-29T06:35:58;5.43;;;4.93;;
26690;SDS011;14307;51.718;8.938;2023-07-29T06:38:24;5.53;;;4.70;;
26690;SDS011;14307;51.718;8.938;2023-07-29T06:40:51;3.80;;;3.50;;
26690;SDS011;14307;51.718;8.938;2023-07-29T06:43:18;4.40;;;4.10;;
26690;SDS011;14307;51.718;8.938;2023-07-29T06:45:45;4.80;;;4.15;;
26690;SDS011;14307;51.718;8.938;2023-07-29T06:48:12;4.63;;;4.22;;
26690;SDS011;14307;51.718;8.938;2023-07-29T06:50:38;4.38;;;3.97;;
26690;SDS011;14307;51.718;8.938;2023-07-29T06:53:05;4.15;;;3.85;;
26690;SDS011;14307;51.718;8.938;2023-07-29T06:55:32;4.70;;;4.30;;
26690;SDS011;14307;51.718;8.938;2023-07-29T06:57:59;4.65;;;4.25;;
26690;SDS011;14307;51.718;8.938;2023-07-29T07:00:26;4.32;;;4.00;;
26690;SDS011;14307;51.718;8.938;2023-07-29T07:02:53;6.00;;;4.57;;
26690;SDS011;14307;51.718;8.938;2023-07-29T07:05:19;4.65;;;4.18;;
26690;SDS011;14307;51.718;8.938;2023-07-29T07:07:46;5.10;;;4.60;;
26690;SDS011;14307;51.718;8.938;2023-07-29T07:10:13;3.95;;;3.67;;
26690;SDS011;14307;51.718;8.938;2023-07-29T07:12:40;4.32;;;4.03;;
26690;SDS011;14307;51.718;8.938;2023-07-29T07:15:07;4.78;;;4.40;;
26690;SDS011;14307;51.718;8.938;2023-07-29T07:17:34;4.65;;;4.25;;
26690;SDS011;14307;51.718;8.938;2023-07-29T07:20:01;5.18;;;4.80;;
26690;SDS011;14307;51.718;8.938;2023-07-29T07:22:28;7.10;;;4.90;;
26690;SDS011;14307;51.718;8.938;2023-07-29T07:24:55;6.32;;;4.07;;
26690;SDS011;14307;51.718;8.938;2023-07-29T07:27:22;4.78;;;4.38;;
26690;SDS011;14307;51.718;8.938;2023-07-29T07:29:49;5.53;;;4.82;;
26690;SDS011;14307;51.718;8.938;2023-07-29T07:32:16;5.65;;;4.97;;
26690;SDS011;14307;51.718;8.938;2023-07-29T07:34:42;6.63;;;5.57;;
26690;SDS011;14307;51.718;8.938;2023-07-29T07:37:09;6.20;;;5.60;;
26690;SDS011;14307;51.718;8.938;2023-07-29T07:39:36;6.25;;;5.65;;
26690;SDS011;14307;51.718;8.938;2023-07-29T07:42:03;7.07;;;6.28;;
26690;SDS011;14307;51.718;8.938;2023-07-29T07:44:31;6.10;;;5.47;;
26690;SDS011;14307;51.718;8.938;2023-07-29T07:46:57;8.63;;;5.97;;
26690;SDS011;14307;51.718;8.938;2023-07-29T07:49:24;14.02;;;8.48;;
26690;SDS011;14307;51.718;8.938;2023-07-29T07:51:51;10.80;;;9.10;;
26690;SDS011;14307;51.718;8.938;2023-07-29T07:54:17;14.98;;;11.68;;
26690;SDS011;14307;51.718;8.938;2023-07-29T07:56:44;15.35;;;12.07;;
26690;SDS011;14307;51.718;8.938;2023-07-29T07:59:11;20.80;;;15.48;;
26690;SDS011;14307;51.718;8.938;2023-07-29T08:01:42;25.52;;;17.60;;
26690;SDS011;14307;51.718;8.938;2023-07-29T08:04:09;28.60;;;19.20;;
26690;SDS011;14307;51.718;8.938;2023-07-29T08:06:36;31.58;;;21.30;;
26690;SDS011;14307;51.718;8.938;2023-07-29T08:09:03;31.13;;;21.58;;
26690;SDS011;14307;51.718;8.938;2023-07-29T08:11:31;33.97;;;23.17;;
26690;SDS011;14307;51.718;8.938;2023-07-29T08:13:58;30.42;;;21.30;;
26690;SDS011;14307;51.718;8.938;2023-07-29T08:16:25;31.40;;;21.88;;
26690;SDS011;14307;51.718;8.938;2023-07-29T08:18:52;33.83;;;22.52;;
26690;SDS011;14307;51.718;8.938;2023-07-29T08:21:19;32.63;;;23.08;;
26690;SDS011;14307;51.718;8.938;2023-07-29T08:23:46;27.20;;;20.73;;
26690;SDS011;14307;51.718;8.938;2023-07-29T08:26:12;32.22;;;22.50;;
26690;SDS011;14307;51.718;8.938;2023-07-29T08:28:39;30.33;;;22.42;;
26690;SDS011;14307;51.718;8.938;2023-07-29T08:31:06;36.28;;;23.80;;
26690;SDS011;14307;51.718;8.938;2023-07-29T08:33:33;32.65;;;23.10;;
26690;SDS011;14307;51.718;8.938;2023-07-29T08:36:01;24.00;;;19.23;;
26690;SDS011;14307;51.718;8.938;2023-07-29T08:38:29;28.80;;;21.40;;
26690;SDS011;14307;51.718;8.938;2023-07-29T08:41:00;28.63;;;20.60;;
26690;SDS011;14307;51.718;8.938;2023-07-29T08:46:50;28.08;;;19.70;;
26690;SDS011;14307;51.718;8.938;2023-07-29T08:49:20;26.65;;;18.75;;
26690;SDS011;14307;51.718;8.938;2023-07-29T08:51:49;25.88;;;19.10;;
26690;SDS011;14307;51.718;8.938;2023-07-29T08:54:19;24.55;;;17.15;;
26690;SDS011;14307;51.718;8.938;2023-07-29T08:56:46;27.98;;;19.73;;
26690;SDS011;14307;51.718;8.938;2023-07-29T08:59:14;22.85;;;16.85;;
26690;SDS011;14307;51.718;8.938;2023-07-29T09:01:43;19.90;;;16.25;;
26690;SDS011;14307;51.718;8.938;2023-07-29T09:04:10;22.27;;;18.30;;
26690;SDS011;14307;51.718;8.938;2023-07-29T09:06:37;23.15;;;18.45;;
26690;SDS011;14307;51.718;8.938;2023-07-29T09:09:07;19.50;;;16.85;;
26690;SDS011;14307;51.718;8.938;2023-07-29T09:11:34;19.33;;;16.60;;
26690;SDS011;14307;51.718;8.938;2023-07-29T09:14:01;22.77;;;19.67;;
26690;SDS011;14307;51.718;8.938;2023-07-29T09:16:28;27.17;;;20.63;;
26690;SDS011;14307;51.718;8.938;2023-07-29T09:18:55;23.17;;;20.58;;
26690;SDS011;14307;51.718;8.938;2023-07-29T09:21:26;19.88;;;17.88;;
26690;SDS011;14307;51.718;8.938;2023-07-29T09:23:55;22.45;;;19.45;;
26690;SDS011;14307;51.718;8.938;2023-07-29T09:26:22;23.75;;;18.95;;
26690;SDS011;14307;51.718;8.938;2023-07-29T09:28:52;24.77;;;22.13;;
26690;SDS011;14307;51.718;8.938;2023-07-29T09:31:20;23.40;;;20.48;;
26690;SDS011;14307;51.718;8.938;2023-07-29T09:33:49;23.77;;;21.30;;
26690;SDS011;14307;51.718;8.938;2023-07-29T09:36:16;25.33;;;22.63;;
26690;SDS011;14307;51.718;8.938;2023-07-29T09:38:44;25.25;;;22.85;;
26690;SDS011;14307;51.718;8.938;2023-07-29T09:41:15;24.60;;;22.42;;
26690;SDS011;14307;51.718;8.938;2023-07-29T09:43:42;26.92;;;24.52;;
26690;SDS011;14307;51.718;8.938;2023-07-29T09:46:09;24.58;;;22.60;;
26690;SDS011;14307;51.718;8.938;2023-07-29T09:48:36;26.08;;;23.98;;
26690;SDS011;14307;51.718;8.938;2023-07-29T09:51:13;23.98;;;22.17;;
26690;SDS011;14307;51.718;8.938;2023-07-29T09:53:44;22.58;;;20.83;;
26690;SDS011;14307;51.718;8.938;2023-07-29T09:56:13;24.90;;;22.60;;
26690;SDS011;14307;51.718;8.938;2023-07-29T09:58:41;23.58;;;21.73;;
26690;SDS011;14307;51.718;8.938;2023-07-29T10:01:09;23.17;;;21.40;;
26690;SDS011;14307;51.718;8.938;2023-07-29T10:03:36;21.70;;;20.13;;
26690;SDS011;14307;51.718;8.938;2023-07-29T10:06:04;22.33;;;20.83;;
26690;SDS011;14307;51.718;8.938;2023-07-29T10:08:32;22.20;;;20.90;;
26690;SDS011;14307;51.718;8.938;2023-07-29T10:11:08;23.75;;;22.25;;
26690;SDS011;14307;51.718;8.938;2023-07-29T10:13:36;25.23;;;23.55;;
26690;SDS011;14307;51.718;8.938;2023-07-29T10:16:03;25.20;;;23.48;;
26690;SDS011;14307;51.718;8.938;2023-07-29T10:18:31;24.92;;;23.52;;
26690;SDS011;14307;51.718;8.938;2023-07-29T10:20:59;25.15;;;23.60;;
26690;SDS011;14307;51.718;8.938;2023-07-29T10:23:27;24.55;;;23.15;;
26690;SDS011;14307;51.718;8.938;2023-07-29T10:26:02;24.90;;;23.50;;
26690;SDS011;14307;51.718;8.938;2023-07-29T10:28:31;24.48;;;23.10;;
26690;SDS011;14307;51.718;8.938;2023-07-29T10:30:58;23.58;;;22.17;;
26690;SDS011;14307;51.718;8.938;2023-07-29T10:33:26;24.60;;;22.52;;
26690;SDS011;14307;51.718;8.938;2023-07-29T10:35:53;22.02;;;20.80;;
26690;SDS011;14307;51.718;8.938;2023-07-29T10:38:21;22.27;;;20.65;;
26690;SDS011;14307;51.718;8.938;2023-07-29T10:40:57;22.30;;;20.80;;
26690;SDS011;14307;51.718;8.938;2023-07-29T10:43:28;25.35;;;23.95;;
26690;SDS011;14307;51.718;8.938;2023-07-29T10:46:14;23.02;;;21.77;;
26690;SDS011;14307;51.718;8.938;2023-07-29T10:48:55;21.55;;;20.35;;
26690;SDS011;14307;51.718;8.938;2023-07-29T10:54:03;23.83;;;22.52;;
26690;SDS011;14307;51.718;8.938;2023-07-29T10:56:36;23.50;;;22.20;;
26690;SDS011;14307;51.718;8.938;2023-07-29T11:01:45;23.30;;;22.00;;
26690;SDS011;14307;51.718;8.938;2023-07-29T11:09:42;23.55;;;22.15;;
26690;SDS011;14307;51.718;8.938;2023-07-29T11:15:25;25.13;;;23.45;;
26690;SDS011;14307;51.718;8.938;2023-07-29T11:17:55;20.27;;;19.15;;
26690;SDS011;14307;51.718;8.938;2023-07-29T11:20:26;21.70;;;20.40;;
26690;SDS011;14307;51.718;8.938;2023-07-29T11:22:58;25.70;;;24.30;;
26690;SDS011;14307;51.718;8.938;2023-07-29T11:25:27;24.55;;;23.08;;
26690;SDS011;14307;51.718;8.938;2023-07-29T11:27:55;25.52;;;24.13;;
26690;SDS011;14307;51.718;8.938;2023-07-29T11:30:24;24.88;;;23.48;;
26690;SDS011;14307;51.718;8.938;2023-07-29T11:32:55;24.92;;;23.52;;
26690;SDS011;14307;51.718;8.938;2023-07-29T11:35:23;22.45;;;21.20;;
26690;SDS011;14307;51.718;8.938;2023-07-29T11:37:50;23.58;;;22.17;;
26690;SDS011;14307;51.718;8.938;2023-07-29T11:40:19;25.40;;;24.00;;
26690;SDS011;14307;51.718;8.938;2023-07-29T11:42:48;21.48;;;20.27;;
26690;SDS011;14307;51.718;8.938;2023-07-29T11:45:17;23.77;;;22.33;;
26690;SDS011;14307;51.718;8.938;2023-07-29T11:47:45;25.73;;;24.02;;
26690;SDS011;14307;51.718;8.938;2023-07-29T11:50:13;26.63;;;25.13;;
26690;SDS011;14307;51.718;8.938;2023-07-29T11:52:41;27.00;;;25.50;;
26690;SDS011;14307;51.718;8.938;2023-07-29T11:55:11;26.23;;;24.73;;
26690;SDS011;14307;51.718;8.938;2023-07-29T11:57:38;26.02;;;24.52;;
26690;SDS011;14307;51.718;8.938;2023-07-29T12:00:06;25.52;;;24.02;;
26690;SDS011;14307;51.718;8.938;2023-07-29T12:02:37;23.15;;;21.65;;
26690;SDS011;14307;51.718;8.938;2023-07-29T12:05:10;24.90;;;23.40;;
26690;SDS011;14307;51.718;8.938;2023-07-29T12:07:39;24.70;;;23.30;;
26690;SDS011;14307;51.718;8.938;2023-07-29T12:10:07;24.92;;;23.42;;
26690;SDS011;14307;51.718;8.938;2023-07-29T12:12:43;24.05;;;22.63;;
26690;SDS011;14307;51.718;8.938;2023-07-29T12:15:22;22.90;;;21.58;;
26690;SDS011;14307;51.718;8.938;2023-07-29T12:17:53;21.98;;;20.88;;
26690;SDS011;14307;51.718;8.938;2023-07-29T12:20:23;24.85;;;23.42;;
26690;SDS011;14307;51.718;8.938;2023-07-29T12:22:53;24.10;;;22.48;;
26690;SDS011;14307;51.718;8.938;2023-07-29T12:25:21;24.92;;;23.48;;
26690;SDS011;14307;51.718;8.938;2023-07-29T12:27:48;23.73;;;22.42;;
26690;SDS011;14307;51.718;8.938;2023-07-29T12:30:15;25.95;;;24.55;;
26690;SDS011;14307;51.718;8.938;2023-07-29T12:32:46;26.67;;;25.17;;
26690;SDS011;14307;51.718;8.938;2023-07-29T12:35:13;22.98;;;21.67;;
26690;SDS011;14307;51.718;8.938;2023-07-29T12:37:40;22.45;;;21.17;;
26690;SDS011;14307;51.718;8.938;2023-07-29T12:40:25;23.00;;;21.77;;
26690;SDS011;14307;51.718;8.938;2023-07-29T12:42:53;24.77;;;23.38;;
26690;SDS011;14307;51.718;8.938;2023-07-29T12:45:20;22.42;;;21.25;;
26690;SDS011;14307;51.718;8.938;2023-07-29T12:47:49;22.45;;;21.20;;
26690;SDS011;14307;51.718;8.938;2023-07-29T12:50:16;23.02;;;21.70;;
26690;SDS011;14307;51.718;8.938;2023-07-29T12:52:44;23.05;;;21.83;;
26690;SDS011;14307;51.718;8.938;2023-07-29T12:55:11;24.10;;;22.70;;
26690;SDS011;14307;51.718;8.938;2023-07-29T12:57:42;23.73;;;22.42;;
26690;SDS011;14307;51.718;8.938;2023-07-29T13:00:10;24.17;;;22.88;;
26690;SDS011;14307;51.718;8.938;2023-07-29T13:02:37;23.40;;;22.10;;
26690;SDS011;14307;51.718;8.938;2023-07-29T13:05:05;24.10;;;22.80;;
26690;SDS011;14307;51.718;8.938;2023-07-29T13:07:32;23.10;;;21.80;;
26690;SDS011;14307;51.718;8.938;2023-07-29T13:09:59;24.45;;;23.05;;
26690;SDS011;14307;51.718;8.938;2023-07-29T13:12:26;23.55;;;21.88;;
26690;SDS011;14307;51.718;8.938;2023-07-29T13:14:53;23.00;;;21.80;;
26690;SDS011;14307;51.718;8.938;2023-07-29T13:17:21;22.63;;;21.42;;
26690;SDS011;14307;51.718;8.938;2023-07-29T13:19:48;23.33;;;22.02;;
26690;SDS011;14307;51.718;8.938;2023-07-29T13:22:15;22.35;;;21.05;;
26690;SDS011;14307;51.718;8.938;2023-07-29T13:24:42;22.70;;;21.42;;
26690;SDS011;14307;51.718;8.938;2023-07-29T13:27:09;22.92;;;21.73;;
26690;SDS011;14307;51.718;8.938;2023-07-29T13:29:36;23.02;;;21.90;;
26690;SDS011;14307;51.718;8.938;2023-07-29T13:32:03;23.27;;;22.02;;
26690;SDS011;14307;51.718;8.938;2023-07-29T13:34:30;24.05;;;22.75;;
26690;SDS011;14307;51.718;8.938;2023-07-29T13:37:00;24.80;;;23.40;;
26690;SDS011;14307;51.718;8.938;2023-07-29T13:39:27;21.80;;;20.63;;
26690;SDS011;14307;51.718;8.938;2023-07-29T13:41:54;23.50;;;22.00;;
26690;SDS011;14307;51.718;8.938;2023-07-29T13:44:21;22.83;;;21.40;;
26690;SDS011;14307;51.718;8.938;2023-07-29T13:46:47;23.05;;;21.75;;
26690;SDS011;14307;51.718;8.938;2023-07-29T13:49:14;23.25;;;21.95;;
26690;SDS011;14307;51.718;8.938;2023-07-29T13:51:41;23.67;;;22.17;;
26690;SDS011;14307;51.718;8.938;2023-07-29T13:54:09;22.73;;;21.42;;
26690;SDS011;14307;51.718;8.938;2023-07-29T13:56:36;22.17;;;20.77;;
26690;SDS011;14307;51.718;8.938;2023-07-29T13:59:03;22.63;;;21.33;;
26690;SDS011;14307;51.718;8.938;2023-07-29T14:01:30;22.45;;;21.05;;
26690;SDS011;14307;51.718;8.938;2023-07-29T14:03:56;23.10;;;21.80;;
26690;SDS011;14307;51.718;8.938;2023-07-29T14:06:23;23.02;;;21.67;;
26690;SDS011;14307;51.718;8.938;2023-07-29T14:09:09;22.98;;;21.40;;
26690;SDS011;14307;51.718;8.938;2023-07-29T14:11:36;23.35;;;22.05;;
26690;SDS011;14307;51.718;8.938;2023-07-29T14:14:03;24.02;;;22.65;;
26690;SDS011;14307;51.718;8.938;2023-07-29T14:16:30;23.50;;;22.10;;
26690;SDS011;14307;51.718;8.938;2023-07-29T14:18:57;24.15;;;22.70;;
26690;SDS011;14307;51.718;8.938;2023-07-29T14:21:23;24.27;;;22.77;;
26690;SDS011;14307;51.718;8.938;2023-07-29T14:23:50;23.65;;;22.25;;
26690;SDS011;14307;51.718;8.938;2023-07-29T14:26:18;23.98;;;22.60;;
26690;SDS011;14307;51.718;8.938;2023-07-29T14:28:44;23.77;;;22.17;;
26690;SDS011;14307;51.718;8.938;2023-07-29T14:31:11;22.75;;;21.45;;
26690;SDS011;14307;51.718;8.938;2023-07-29T14:33:38;23.85;;;22.42;;
26690;SDS011;14307;51.718;8.938;2023-07-29T14:36:05;23.65;;;22.20;;
26690;SDS011;14307;51.718;8.938;2023-07-29T14:38:34;23.08;;;21.77;;
26690;SDS011;14307;51.718;8.938;2023-07-29T14:41:02;23.38;;;22.00;;
26690;SDS011;14307;51.718;8.938;2023-07-29T14:43:30;23.13;;;21.73;;
26690;SDS011;14307;51.718;8.938;2023-07-29T14:45:57;24.35;;;22.85;;
26690;SDS011;14307;51.718;8.938;2023-07-29T14:48:24;23.13;;;21.83;;
26690;SDS011;14307;51.718;8.938;2023-07-29T14:50:51;23.67;;;22.17;;
26690;SDS011;14307;51.718;8.938;2023-07-29T14:53:17;23.63;;;22.13;;
26690;SDS011;14307;51.718;8.938;2023-07-29T14:55:45;23.35;;;22.05;;